Time;durP1;ratioP1;P1;durP2;ratioP2;P2;SDS_P1;SDS_P2;PMS_P1;PMS_P2;Temp;Humidity;BMP_temperature;BMP_pressure;BME280_temperature;BME280_humidity;BME280_pressure;Samples;Min_cycle;Max_cycle;Signal;HPM_P1;HPM_P2
2021/01/09 00:02:23;;;;;;;0.10;0.10;;;1.30;98.50;;;;;;4973596;28;20170;-77
2021/01/09 00:04:49;;;;;;;0.10;0.10;;;1.30;98.50;;;;;;4964908;28;20273;-77
2021/01/09 00:07:14;;;;;;;0.27;0.20;;;1.30;98.50;;;;;;4977138;28;20634;-77
2021/01/09 00:09:40;;;;;;;0.10;0.10;;;1.30;98.50;;;;;;4975633;28;20190;-77
2021/01/09 00:12:11;;;;;;;0.00;0.00;;;1.30;98.50;;;;;;4974294;28;20194;-77
2021/01/09 00:14:37;;;;;;;0.10;0.10;;;1.30;98.50;;;;;;4978378;28;20253;-78
2021/01/09 00:17:03;;;;;;;0.10;0.10;;;1.30;98.50;;;;;;4971124;28;20245;-77
2021/01/09 00:19:29;;;;;;;0.40;0.20;;;1.30;98.50;;;;;;4971767;28;20178;-77
2021/01/09 00:21:56;;;;;;;0.10;0.10;;;1.20;98.50;;;;;;4971452;28;20190;-77
2021/01/09 00:24:22;;;;;;;0.10;0.10;;;1.30;98.50;;;;;;4971164;28;20186;-76
2021/01/09 00:26:47;;;;;;;0.63;0.10;;;1.20;98.50;;;;;;4970438;28;20186;-76
2021/01/09 00:29:13;;;;;;;0.10;0.10;;;1.20;98.50;;;;;;4971025;28;20198;-76
2021/01/09 00:31:39;;;;;;;0.10;0.10;;;1.20;98.50;;;;;;4953071;28;20186;-77
2021/01/09 00:34:05;;;;;;;0.40;0.40;;;1.30;98.50;;;;;;4971493;28;20946;-75
2021/01/09 00:36:30;;;;;;;0.20;0.03;;;1.30;98.50;;;;;;4966709;28;20888;-75
2021/01/09 00:38:56;;;;;;;0.30;0.10;;;1.30;98.50;;;;;;4971695;28;20586;-76
2021/01/09 00:41:29;;;;;;;0.10;0.10;;;1.30;98.50;;;;;;4971128;28;20214;-76
2021/01/09 00:43:55;;;;;;;0.10;0.10;;;1.30;98.50;;;;;;4971740;28;20572;-76
2021/01/09 00:46:21;;;;;;;0.20;0.20;;;1.30;98.50;;;;;;4970833;28;20179;-76
2021/01/09 00:48:47;;;;;;;0.20;0.20;;;1.30;98.50;;;;;;4972004;28;20240;-76
2021/01/09 00:51:14;;;;;;;0.23;0.10;;;1.30;98.50;;;;;;4952145;28;20194;-77
2021/01/09 00:53:40;;;;;;;0.10;0.10;;;1.30;98.50;;;;;;4953364;28;20214;-76
2021/01/09 00:56:07;;;;;;;0.10;0.10;;;1.40;98.50;;;;;;4969977;28;20197;-77
2021/01/09 00:58:34;;;;;;;0.20;0.20;;;1.40;98.50;;;;;;4978178;28;20186;-76
2021/01/09 01:00:59;;;;;;;0.20;0.10;;;1.40;98.50;;;;;;4982415;28;20182;-76
2021/01/09 01:03:27;;;;;;;0.10;0.10;;;1.40;98.50;;;;;;4970839;28;20240;-76
2021/01/09 01:05:52;;;;;;;0.10;0.10;;;1.40;98.50;;;;;;4970677;28;20184;-76
2021/01/09 01:08:18;;;;;;;0.10;0.10;;;1.40;98.50;;;;;;4952832;28;20225;-76
2021/01/09 01:10:44;;;;;;;0.00;0.00;;;1.40;98.50;;;;;;4970260;28;20673;-76
2021/01/09 01:13:10;;;;;;;0.00;0.00;;;1.40;98.50;;;;;;4980008;28;20680;-76
2021/01/09 01:15:35;;;;;;;0.10;0.10;;;1.40;98.50;;;;;;4973536;28;20615;-76
2021/01/09 01:18:01;;;;;;;0.10;0.10;;;1.40;98.50;;;;;;4951575;28;20277;-76
2021/01/09 01:20:27;;;;;;;0.10;0.10;;;1.40;98.50;;;;;;4966509;28;20710;-76
2021/01/09 01:22:53;;;;;;;0.10;0.10;;;1.40;98.50;;;;;;4968268;28;20197;-76
2021/01/09 01:25:19;;;;;;;0.10;0.10;;;1.40;98.50;;;;;;4968641;28;20605;-76
2021/01/09 01:27:44;;;;;;;0.10;0.10;;;1.40;98.50;;;;;;4967126;28;20208;-76
2021/01/09 01:30:11;;;;;;;0.10;0.10;;;1.40;98.50;;;;;;4968896;28;20170;-76
2021/01/09 01:32:36;;;;;;;0.10;0.10;;;1.40;98.50;;;;;;4954809;28;20194;-76
2021/01/09 01:35:04;;;;;;;0.30;0.20;;;1.40;98.50;;;;;;4951653;28;20249;-76
2021/01/09 01:37:31;;;;;;;0.10;0.10;;;1.40;98.50;;;;;;4968669;28;20214;-76
2021/01/09 01:39:56;;;;;;;0.20;0.20;;;1.40;98.50;;;;;;4968554;28;20848;-75
2021/01/09 01:42:22;;;;;;;0.10;0.10;;;1.40;98.50;;;;;;4970733;28;20252;-76
2021/01/09 01:44:48;;;;;;;0.00;0.00;;;1.40;98.50;;;;;;4970602;28;20205;-76
2021/01/09 01:47:19;;;;;;;0.10;0.10;;;1.50;98.50;;;;;;4970615;28;20178;-76
2021/01/09 01:49:46;;;;;;;0.10;0.10;;;1.50;98.50;;;;;;4972303;28;20186;-76
2021/01/09 01:52:18;;;;;;;0.10;0.10;;;1.40;98.50;;;;;;4977063;28;20225;-76
2021/01/09 01:54:45;;;;;;;0.10;0.10;;;1.50;98.50;;;;;;4976164;28;20225;-75
2021/01/09 01:57:12;;;;;;;0.30;0.30;;;1.50;98.50;;;;;;4955579;28;20268;-75
2021/01/09 01:59:39;;;;;;;1.70;0.20;;;1.50;98.50;;;;;;4969669;28;20229;-76
2021/01/09 02:02:09;;;;;;;0.30;0.30;;;1.50;98.50;;;;;;4969538;28;20182;-76
2021/01/09 02:04:35;;;;;;;1.07;0.20;;;1.50;98.50;;;;;;4970222;28;20190;-76
2021/01/09 02:07:06;;;;;;;0.20;0.20;;;1.50;98.50;;;;;;4969095;28;20192;-76
2021/01/09 02:09:40;;;;;;;0.20;0.20;;;1.50;98.50;;;;;;4970788;28;20185;-76
2021/01/09 02:12:06;;;;;;;0.20;0.20;;;1.50;98.50;;;;;;4974479;28;20252;-76
2021/01/09 02:14:43;;;;;;;0.20;0.20;;;1.50;98.50;;;;;;4976191;28;20718;-76
2021/01/09 02:17:10;;;;;;;0.30;0.30;;;1.50;98.50;;;;;;4973422;28;20216;-76
2021/01/09 02:19:41;;;;;;;0.83;0.30;;;1.50;98.50;;;;;;4967620;28;20209;-76
2021/01/09 02:22:14;;;;;;;0.30;0.30;;;1.40;98.50;;;;;;4980466;28;20181;-76
2021/01/09 02:24:41;;;;;;;0.50;0.30;;;1.40;98.50;;;;;;4961204;28;20222;-76
2021/01/09 02:27:08;;;;;;;0.20;0.20;;;1.40;98.50;;;;;;4968491;28;20193;-76
2021/01/09 02:29:39;;;;;;;0.83;0.40;;;1.40;98.50;;;;;;4972115;28;20198;-76
2021/01/09 02:32:09;;;;;;;0.30;0.30;;;1.40;98.50;;;;;;4949759;28;20191;-76
2021/01/09 02:34:57;;;;;;;0.30;0.30;;;1.40;98.50;;;;;;4964164;28;20210;-76
2021/01/09 02:37:24;;;;;;;0.70;0.43;;;1.40;98.50;;;;;;4969018;28;20194;-76
2021/01/09 02:39:50;;;;;;;0.20;0.20;;;1.40;98.50;;;;;;4981620;28;20627;-76
2021/01/09 02:42:19;;;;;;;0.40;0.40;;;1.40;98.50;;;;;;4968525;28;20197;-76
2021/01/09 02:44:48;;;;;;;0.27;0.27;;;1.40;98.50;;;;;;4968791;28;20190;-76
2021/01/09 02:47:14;;;;;;;0.20;0.20;;;1.40;98.50;;;;;;4969572;28;20190;-77
2021/01/09 02:49:39;;;;;;;1.40;0.40;;;1.40;98.50;;;;;;4969696;28;20190;-76
2021/01/09 02:52:05;;;;;;;0.23;0.23;;;1.40;98.50;;;;;;4968113;28;20186;-76
2021/01/09 02:54:31;;;;;;;0.50;0.50;;;1.40;98.50;;;;;;4975859;28;20220;-77
2021/01/09 02:59:40;;;;;;;0.20;0.20;;;1.50;98.50;;;;;;4953583;28;20210;-77
2021/01/09 03:02:06;;;;;;;0.20;0.20;;;1.50;98.50;;;;;;4966140;28;20614;-77
2021/01/09 03:04:32;;;;;;;0.77;0.23;;;1.60;98.50;;;;;;4965137;28;20973;-76
2021/01/09 03:06:58;;;;;;;0.20;0.20;;;1.60;98.50;;;;;;4969262;28;20197;-77
2021/01/09 03:09:23;;;;;;;0.43;0.20;;;1.50;98.50;;;;;;4953694;28;20241;-76
2021/01/09 03:11:49;;;;;;;0.30;0.30;;;1.50;98.50;;;;;;4969372;28;20194;-76
2021/01/09 03:14:15;;;;;;;0.30;0.30;;;1.50;98.50;;;;;;4959414;28;20221;-76
2021/01/09 03:16:40;;;;;;;1.50;0.30;;;1.50;98.50;;;;;;4951077;28;20651;-76
2021/01/09 03:19:06;;;;;;;0.30;0.30;;;1.50;98.50;;;;;;4960510;28;20611;-77
2021/01/09 03:21:32;;;;;;;0.17;0.17;;;1.50;98.50;;;;;;4967020;28;20186;-76
2021/01/09 03:23:58;;;;;;;0.30;0.30;;;1.40;98.50;;;;;;4976231;28;20194;-76
2021/01/09 03:26:23;;;;;;;0.27;0.27;;;1.40;98.50;;;;;;4973887;28;20598;-77
2021/01/09 03:28:49;;;;;;;0.30;0.30;;;1.40;98.50;;;;;;4986975;28;20209;-76
2021/01/09 03:31:15;;;;;;;0.40;0.37;;;1.40;98.50;;;;;;4972538;28;20233;-77
2021/01/09 03:33:41;;;;;;;0.53;0.53;;;1.50;98.50;;;;;;4971809;28;20197;-76
2021/01/09 03:36:06;;;;;;;0.40;0.40;;;1.50;98.50;;;;;;4976937;28;20277;-76
2021/01/09 03:38:32;;;;;;;0.30;0.30;;;1.50;98.50;;;;;;4984913;28;20297;-76
2021/01/09 03:40:58;;;;;;;0.40;0.40;;;1.40;98.50;;;;;;4988546;28;20264;-77
2021/01/09 03:43:24;;;;;;;0.37;0.37;;;1.40;98.50;;;;;;4954035;28;20186;-75
2021/01/09 03:45:50;;;;;;;0.50;0.50;;;1.30;98.50;;;;;;4970953;28;20288;-75
2021/01/09 03:48:15;;;;;;;0.30;0.30;;;1.40;98.50;;;;;;4970482;28;20667;-76
2021/01/09 03:50:41;;;;;;;0.57;0.57;;;1.40;98.50;;;;;;4974018;28;20202;-75
2021/01/09 03:53:07;;;;;;;0.40;0.40;;;1.40;98.50;;;;;;4972968;28;20678;-76
2021/01/09 03:55:32;;;;;;;0.50;0.50;;;1.40;98.50;;;;;;4971161;28;20229;-76
2021/01/09 03:58:17;;;;;;;0.60;0.47;;;1.40;98.50;;;;;;4977273;28;20952;-77
2021/01/09 04:00:42;;;;;;;0.70;0.70;;;1.40;98.50;;;;;;4971517;28;20193;-76
2021/01/09 04:03:08;;;;;;;1.43;0.50;;;1.40;98.50;;;;;;4976598;28;20608;-76
2021/01/09 04:05:34;;;;;;;1.07;0.47;;;1.40;98.50;;;;;;4973256;28;20197;-76
2021/01/09 04:08:00;;;;;;;1.13;0.60;;;1.40;98.50;;;;;;4971229;28;20225;-77
2021/01/09 04:10:25;;;;;;;0.90;0.90;;;1.40;98.50;;;;;;4965454;28;20719;-76
2021/01/09 04:12:51;;;;;;;0.60;0.60;;;1.40;98.50;;;;;;4971024;28;20583;-76
2021/01/09 04:15:17;;;;;;;0.30;0.30;;;1.40;98.50;;;;;;4970995;28;21057;-76
2021/01/09 04:17:42;;;;;;;0.70;0.70;;;1.40;98.50;;;;;;4971272;28;20928;-77
2021/01/09 04:20:09;;;;;;;0.50;0.50;;;1.40;98.50;;;;;;4970108;28;20614;-77
2021/01/09 04:22:35;;;;;;;1.67;0.53;;;1.30;98.50;;;;;;4971312;28;20211;-77
2021/01/09 04:25:02;;;;;;;0.43;0.40;;;1.30;98.50;;;;;;4973473;28;20222;-77
2021/01/09 04:27:28;;;;;;;0.83;0.50;;;1.40;98.50;;;;;;4972516;28;20194;-77
2021/01/09 04:29:53;;;;;;;0.50;0.50;;;1.40;98.50;;;;;;4971122;28;20178;-77
2021/01/09 04:32:19;;;;;;;0.40;0.40;;;1.40;98.50;;;;;;4970164;28;20194;-77
2021/01/09 04:34:47;;;;;;;0.23;0.23;;;1.50;98.50;;;;;;4953879;28;20296;-77
2021/01/09 04:37:13;;;;;;;0.30;0.30;;;1.50;98.50;;;;;;4953700;28;20182;-77
2021/01/09 04:39:39;;;;;;;0.20;0.20;;;1.50;98.50;;;;;;4971130;28;20285;-77
2021/01/09 04:42:05;;;;;;;0.33;0.33;;;1.60;98.50;;;;;;4971237;28;20175;-77
2021/01/09 04:44:31;;;;;;;0.27;0.23;;;1.50;98.50;;;;;;4969727;28;20206;-77
2021/01/09 04:46:59;;;;;;;0.20;0.20;;;1.60;98.50;;;;;;4964331;28;20212;-76
2021/01/09 04:49:27;;;;;;;0.20;0.20;;;1.60;98.50;;;;;;4970634;28;20273;-77
2021/01/09 04:51:54;;;;;;;0.30;0.30;;;1.50;98.50;;;;;;4971505;28;20566;-77
2021/01/09 04:54:23;;;;;;;0.33;0.13;;;1.50;98.50;;;;;;4971283;28;20315;-77
2021/01/09 04:56:53;;;;;;;0.20;0.20;;;1.50;98.50;;;;;;4970971;28;20186;-78
2021/01/09 04:59:20;;;;;;;0.30;0.30;;;1.40;98.50;;;;;;4969874;28;20197;-78
2021/01/09 05:01:49;;;;;;;0.23;0.20;;;1.40;98.50;;;;;;4971061;28;20578;-77
2021/01/09 05:04:17;;;;;;;0.40;0.40;;;1.40;98.50;;;;;;4971061;28;20567;-78
2021/01/09 05:06:44;;;;;;;0.40;0.40;;;1.40;98.50;;;;;;4953684;28;20885;-78
2021/01/09 05:09:12;;;;;;;0.23;0.23;;;1.40;98.50;;;;;;4970958;28;20205;-77
2021/01/09 05:11:39;;;;;;;0.20;0.20;;;1.40;98.50;;;;;;4970335;28;20178;-78
2021/01/09 05:14:06;;;;;;;0.30;0.30;;;1.40;98.50;;;;;;4954275;28;20214;-78
2021/01/09 05:16:33;;;;;;;0.20;0.20;;;1.40;98.50;;;;;;4970947;28;20182;-78
2021/01/09 05:18:59;;;;;;;0.20;0.20;;;1.40;98.50;;;;;;4952652;28;20213;-78
2021/01/09 05:21:27;;;;;;;0.20;0.20;;;1.40;98.50;;;;;;4970253;28;20182;-77
2021/01/09 05:23:55;;;;;;;0.20;0.20;;;1.30;98.50;;;;;;4970507;28;20273;-77
2021/01/09 05:26:23;;;;;;;0.30;0.30;;;1.40;98.50;;;;;;4970385;28;20186;-77
2021/01/09 05:28:51;;;;;;;0.30;0.30;;;1.30;98.50;;;;;;4970351;28;20194;-77
2021/01/09 05:31:17;;;;;;;0.20;0.20;;;1.30;98.50;;;;;;4962419;28;20193;-77
2021/01/09 05:33:44;;;;;;;0.30;0.30;;;1.40;98.50;;;;;;4952849;28;20178;-77
2021/01/09 05:36:12;;;;;;;0.53;0.20;;;1.30;98.50;;;;;;4969889;28;20317;-77
2021/01/09 05:38:40;;;;;;;0.20;0.20;;;1.40;98.50;;;;;;4970224;28;20175;-77
2021/01/09 05:41:10;;;;;;;0.20;0.20;;;1.30;98.50;;;;;;4970113;28;20171;-77
2021/01/09 05:43:37;;;;;;;0.20;0.20;;;1.40;98.50;;;;;;4970246;28;20598;-76
2021/01/09 05:46:04;;;;;;;0.30;0.30;;;1.30;98.50;;;;;;4970468;28;20253;-77
2021/01/09 05:48:32;;;;;;;0.20;0.20;;;1.30;98.50;;;;;;4963451;28;20175;-77
2021/01/09 05:51:02;;;;;;;0.30;0.30;;;1.30;98.50;;;;;;4970035;28;20178;-77
2021/01/09 05:53:41;;;;;;;0.47;0.30;;;1.30;98.50;;;;;;4970039;28;20610;-77
2021/01/09 05:56:09;;;;;;;0.30;0.30;;;1.30;98.50;;;;;;4968396;28;20190;-77
2021/01/09 05:58:35;;;;;;;0.60;0.53;;;1.30;98.50;;;;;;4969907;28;20185;-77
2021/01/09 06:01:12;;;;;;;0.73;0.53;;;1.30;98.50;;;;;;4970077;28;20569;-77
2021/01/09 06:03:39;;;;;;;0.53;0.53;;;1.30;98.50;;;;;;4968521;28;20276;-77
2021/01/09 06:06:25;;;;;;;0.47;0.47;;;1.30;98.50;;;;;;4970070;28;20186;-79
2021/01/09 06:09:00;;;;;;;0.60;0.60;;;1.30;98.50;;;;;;4968655;28;20927;-78
2021/01/09 06:11:39;;;;;;;0.73;0.70;;;1.30;98.50;;;;;;4967687;28;20265;-77
2021/01/09 06:14:11;;;;;;;0.47;0.47;;;1.30;98.50;;;;;;4969070;28;20240;-77
2021/01/09 06:16:41;;;;;;;0.47;0.47;;;1.40;98.50;;;;;;4969152;28;20174;-78
2021/01/09 06:19:08;;;;;;;0.50;0.50;;;1.40;98.50;;;;;;4969581;28;20201;-78
2021/01/09 06:21:35;;;;;;;0.40;0.40;;;1.40;98.50;;;;;;4952290;28;20182;-78
2021/01/09 06:24:03;;;;;;;0.33;0.33;;;1.30;98.50;;;;;;4969832;28;20190;-80
2021/01/09 06:26:30;;;;;;;0.27;0.27;;;1.30;98.50;;;;;;4969204;28;20210;-79
2021/01/09 06:28:59;;;;;;;1.50;0.63;;;1.40;98.50;;;;;;4970050;28;20954;-78
2021/01/09 06:31:28;;;;;;;0.43;0.43;;;1.40;98.50;;;;;;4969597;28;20178;-78
2021/01/09 06:34:01;;;;;;;0.50;0.50;;;1.40;98.50;;;;;;4969305;28;20206;-79
2021/01/09 06:36:27;;;;;;;0.73;0.57;;;1.40;98.50;;;;;;4968621;28;20183;-77
2021/01/09 06:38:57;;;;;;;1.00;0.57;;;1.40;98.50;;;;;;4968894;28;20789;-77
2021/01/09 06:41:30;;;;;;;2.40;0.57;;;1.40;98.50;;;;;;4968480;28;20249;-77
2021/01/09 06:43:55;;;;;;;0.63;0.63;;;1.40;98.50;;;;;;4968653;28;20178;-77
2021/01/09 06:46:34;;;;;;;0.90;0.90;;;1.40;98.50;;;;;;4969014;28;20190;-76
2021/01/09 06:49:01;;;;;;;0.60;0.60;;;1.40;98.50;;;;;;4968854;28;20583;-76
2021/01/09 06:51:32;;;;;;;0.60;0.60;;;1.50;98.50;;;;;;4960323;28;20323;-77
2021/01/09 06:54:13;;;;;;;0.73;0.50;;;1.40;98.50;;;;;;4968959;28;20272;-76
2021/01/09 06:56:39;;;;;;;0.93;0.50;;;1.30;98.50;;;;;;4971965;28;20240;-76
2021/01/09 06:59:05;;;;;;;1.07;0.73;;;1.30;98.50;;;;;;4972188;28;20269;-76
2021/01/09 07:01:38;;;;;;;0.60;0.60;;;1.30;98.50;;;;;;4972280;28;20270;-77
2021/01/09 07:04:04;;;;;;;0.70;0.57;;;1.30;98.50;;;;;;4972638;28;20260;-76
2021/01/09 07:06:59;;;;;;;0.70;0.70;;;1.40;98.50;;;;;;4972774;28;20188;-77
2021/01/09 07:09:25;;;;;;;0.33;0.33;;;1.40;98.50;;;;;;4973053;28;20182;-77
2021/01/09 07:11:54;;;;;;;2.30;0.80;;;1.40;98.50;;;;;;4971185;28;20805;-77
2021/01/09 07:14:20;;;;;;;2.23;0.67;;;1.40;98.50;;;;;;4972548;28;20213;-77
2021/01/09 07:16:47;;;;;;;0.60;0.60;;;1.50;98.50;;;;;;4972459;28;20178;-76
2021/01/09 07:19:14;;;;;;;1.57;0.60;;;1.50;98.50;;;;;;4972186;28;20189;-77
2021/01/09 07:21:44;;;;;;;0.67;0.67;;;1.50;98.50;;;;;;4967530;28;20227;-76
2021/01/09 07:24:16;;;;;;;0.90;0.90;;;1.50;98.50;;;;;;4965756;28;20212;-84
2021/01/09 07:26:42;;;;;;;0.90;0.90;;;1.50;98.50;;;;;;4948391;28;20185;-84
2021/01/09 07:29:08;;;;;;;1.00;1.00;;;1.50;98.50;;;;;;4972611;28;20276;-82
2021/01/09 07:31:42;;;;;;;1.27;0.80;;;1.50;98.50;;;;;;4971507;28;21097;-82
2021/01/09 07:34:12;;;;;;;1.03;1.00;;;1.50;98.50;;;;;;4955576;28;20623;-83
2021/01/09 07:36:39;;;;;;;0.90;0.90;;;1.50;98.50;;;;;;4955716;28;20186;-80
2021/01/09 07:39:05;;;;;;;0.80;0.80;;;1.50;98.50;;;;;;4955383;28;20757;-80
2021/01/09 07:41:36;;;;;;;0.80;0.80;;;1.50;98.50;;;;;;4956073;28;20190;-80
2021/01/09 07:44:16;;;;;;;0.97;0.97;;;1.50;98.50;;;;;;4957627;28;20179;-81
2021/01/09 07:46:56;;;;;;;0.80;0.80;;;1.60;98.50;;;;;;4974420;28;20182;-81
2021/01/09 07:49:30;;;;;;;1.23;1.13;;;1.60;98.50;;;;;;4956926;28;20209;-81
2021/01/09 07:51:59;;;;;;;0.67;0.67;;;1.60;98.50;;;;;;4972209;28;20265;-81
2021/01/09 07:54:35;;;;;;;0.63;0.63;;;1.60;98.50;;;;;;4973164;28;20570;-82
2021/01/09 07:57:20;;;;;;;1.07;1.07;;;1.60;98.50;;;;;;4969737;28;20182;-82
2021/01/09 07:59:46;;;;;;;0.90;0.90;;;1.60;98.50;;;;;;4972069;28;20179;-81
2021/01/09 08:02:21;;;;;;;1.13;1.13;;;1.70;98.50;;;;;;4984596;28;20205;-83
2021/01/09 08:04:47;;;;;;;1.00;0.93;;;1.70;98.50;;;;;;4977961;28;20181;-81
2021/01/09 08:07:16;;;;;;;0.73;0.73;;;1.80;98.50;;;;;;4972497;28;20667;-81
2021/01/09 08:09:42;;;;;;;1.30;1.23;;;1.80;98.50;;;;;;4982117;28;20178;-81
2021/01/09 08:12:08;;;;;;;0.83;0.83;;;1.80;98.50;;;;;;4972062;28;20190;-81
2021/01/09 08:14:34;;;;;;;1.20;1.10;;;1.80;98.50;;;;;;4955299;28;20213;-83
2021/01/09 08:17:10;;;;;;;1.33;1.20;;;1.80;98.50;;;;;;4970526;28;20186;-82
2021/01/09 08:19:36;;;;;;;1.93;1.37;;;1.90;98.50;;;;;;4954819;28;20982;-83
2021/01/09 08:22:05;;;;;;;2.53;1.50;;;2.00;98.50;;;;;;4954240;28;20190;-81
2021/01/09 08:24:32;;;;;;;1.60;1.50;;;2.00;98.50;;;;;;4954914;28;20190;-82
2021/01/09 08:26:58;;;;;;;1.83;1.73;;;2.10;98.50;;;;;;4970321;28;20182;-82
2021/01/09 08:29:25;;;;;;;2.20;1.40;;;2.20;98.50;;;;;;4953724;28;20693;-81
2021/01/09 08:31:55;;;;;;;1.33;1.33;;;2.20;98.50;;;;;;4971458;28;20189;-82
2021/01/09 08:34:22;;;;;;;1.80;1.70;;;2.30;98.50;;;;;;4953791;28;20308;-81
2021/01/09 08:36:56;;;;;;;3.23;2.33;;;2.40;98.50;;;;;;4954192;28;20178;-87
2021/01/09 08:39:22;;;;;;;1.80;1.80;;;2.40;98.50;;;;;;4954237;28;20683;-82
2021/01/09 08:41:48;;;;;;;2.33;2.23;;;2.40;98.40;;;;;;4950670;28;20211;-75
2021/01/09 08:44:15;;;;;;;4.77;2.60;;;2.40;98.20;;;;;;4967113;28;20194;-75
2021/01/09 08:46:42;;;;;;;3.97;3.40;;;2.40;98.10;;;;;;4967842;28;20186;-75
2021/01/09 08:49:22;;;;;;;4.00;3.70;;;2.30;98.00;;;;;;4969595;28;20194;-81
2021/01/09 08:52:05;;;;;;;6.77;3.80;;;2.30;98.30;;;;;;4963642;28;20178;-76
2021/01/09 08:54:32;;;;;;;3.63;3.30;;;2.30;98.40;;;;;;4952235;28;20202;-76
2021/01/09 08:57:00;;;;;;;5.53;4.60;;;2.30;98.50;;;;;;4968830;28;20182;-75
2021/01/09 08:59:26;;;;;;;5.17;4.57;;;2.30;98.50;;;;;;4952100;28;20187;-76
2021/01/09 09:01:56;;;;;;;8.63;5.67;;;2.30;98.50;;;;;;4952533;28;20299;-77
2021/01/09 09:04:22;;;;;;;5.30;4.90;;;2.30;98.40;;;;;;4969840;28;20245;-76
2021/01/09 09:07:04;;;;;;;5.33;4.23;;;2.30;98.50;;;;;;4969155;28;20186;-76
2021/01/09 09:09:32;;;;;;;3.57;3.27;;;2.30;98.50;;;;;;4968412;28;20166;-76
2021/01/09 09:11:58;;;;;;;4.00;3.70;;;2.50;98.50;;;;;;4966490;28;20182;-74
2021/01/09 09:14:25;;;;;;;3.20;3.03;;;2.60;98.50;;;;;;4967142;28;20585;-75
2021/01/09 09:17:05;;;;;;;2.47;2.37;;;2.70;98.40;;;;;;4967331;28;20178;-75
2021/01/09 09:19:38;;;;;;;2.13;2.03;;;2.70;97.90;;;;;;4966940;28;20186;-76
2021/01/09 09:22:04;;;;;;;2.50;2.30;;;2.70;97.60;;;;;;4964165;28;20175;-76
2021/01/09 09:24:40;;;;;;;2.57;2.10;;;2.70;97.30;;;;;;4967497;28;20189;-76
2021/01/09 09:27:19;;;;;;;2.07;1.97;;;2.80;97.20;;;;;;4965812;28;20194;-75
2021/01/09 09:29:45;;;;;;;2.40;2.30;;;2.80;97.00;;;;;;4966635;28;20182;-75
2021/01/09 09:32:22;;;;;;;2.27;2.17;;;2.80;96.80;;;;;;4967308;28;20208;-75
2021/01/09 09:34:47;;;;;;;4.47;3.03;;;2.90;96.80;;;;;;4967041;28;20657;-75
2021/01/09 09:37:13;;;;;;;4.20;3.13;;;2.80;96.30;;;;;;4966436;28;20182;-75
2021/01/09 09:39:39;;;;;;;4.57;2.80;;;2.80;96.70;;;;;;4968591;28;20544;-83
2021/01/09 09:42:05;;;;;;;3.83;2.97;;;2.90;97.00;;;;;;4962900;28;20182;-82
2021/01/09 09:44:42;;;;;;;5.00;3.57;;;2.90;96.70;;;;;;4950454;28;20198;-74
2021/01/09 09:47:24;;;;;;;3.90;3.50;;;2.90;96.70;;;;;;4956931;28;20201;-74
2021/01/09 09:49:49;;;;;;;3.20;3.07;;;2.90;96.70;;;;;;4948946;28;20190;-74
2021/01/09 09:52:20;;;;;;;4.10;3.53;;;2.80;96.70;;;;;;4966084;28;20185;-76
2021/01/09 09:54:47;;;;;;;2.77;2.57;;;2.80;96.70;;;;;;4958619;28;20203;-76
2021/01/09 09:57:23;;;;;;;2.90;2.70;;;2.80;96.60;;;;;;4955912;28;20179;-75
2021/01/09 10:00:12;;;;;;;2.73;2.53;;;2.80;96.60;;;;;;4954156;28;20702;-75
2021/01/09 10:02:53;;;;;;;3.00;2.80;;;2.80;96.60;;;;;;4964522;28;20175;-75
2021/01/09 10:05:19;;;;;;;3.30;3.03;;;2.80;96.80;;;;;;4962902;28;20186;-75
2021/01/09 10:07:45;;;;;;;4.60;3.80;;;2.90;96.90;;;;;;4959606;28;20906;-76
2021/01/09 10:10:15;;;;;;;3.80;3.50;;;2.90;96.80;;;;;;4955928;28;20217;-77
2021/01/09 10:12:41;;;;;;;5.17;3.53;;;2.90;96.60;;;;;;4967447;28;20252;-76
2021/01/09 10:15:08;;;;;;;4.57;3.10;;;2.90;96.70;;;;;;4948941;28;20206;-75
2021/01/09 10:17:34;;;;;;;4.43;3.97;;;3.00;96.90;;;;;;4966830;28;20201;-74
2021/01/09 10:19:59;;;;;;;13.93;5.97;;;3.00;96.80;;;;;;4948640;28;20660;-75
2021/01/09 10:22:25;;;;;;;5.33;4.83;;;3.10;96.80;;;;;;4966270;28;20450;-76
2021/01/09 10:24:51;;;;;;;6.67;5.07;;;3.20;97.00;;;;;;4966275;28;20186;-75
2021/01/09 10:27:16;;;;;;;6.67;5.27;;;3.30;96.60;;;;;;4964318;28;20179;-75
2021/01/09 10:29:42;;;;;;;7.83;5.60;;;3.40;96.10;;;;;;4966807;28;20174;-75
2021/01/09 10:32:07;;;;;;;8.80;4.57;;;3.50;96.00;;;;;;4970562;28;20202;-74
2021/01/09 10:34:33;;;;;;;5.17;4.73;;;3.50;95.70;;;;;;4963959;28;20210;-76
2021/01/09 10:36:59;;;;;;;6.97;4.53;;;3.60;95.90;;;;;;4959995;28;20655;-76
2021/01/09 10:39:24;;;;;;;6.30;5.43;;;3.70;95.90;;;;;;4969599;28;21106;-76
2021/01/09 10:41:50;;;;;;;5.23;4.83;;;3.70;95.80;;;;;;4966385;28;20270;-75
2021/01/09 10:44:16;;;;;;;8.07;5.83;;;3.80;95.50;;;;;;4970490;28;20242;-76
2021/01/09 10:46:42;;;;;;;6.60;5.73;;;3.80;95.20;;;;;;4960248;28;20183;-75
2021/01/09 10:49:08;;;;;;;6.30;5.00;;;3.80;94.80;;;;;;4935033;28;20258;-75
2021/01/09 10:51:34;;;;;;;7.70;5.53;;;3.70;94.70;;;;;;4959819;28;20179;-75
2021/01/09 10:54:02;;;;;;;6.37;5.03;;;3.70;94.50;;;;;;4955780;28;20714;-76
2021/01/09 10:56:27;;;;;;;7.33;5.10;;;3.60;94.30;;;;;;4961218;28;20177;-76
2021/01/09 10:58:53;;;;;;;12.27;5.40;;;3.60;94.50;;;;;;4963609;28;20179;-75
2021/01/09 11:04:05;;;;;;;8.23;5.93;;;3.40;94.70;;;;;;4967465;28;20177;-75
2021/01/09 11:06:31;;;;;;;5.63;5.13;;;3.30;94.90;;;;;;4967538;28;20199;-75
2021/01/09 11:08:57;;;;;;;10.60;5.83;;;3.40;95.10;;;;;;4969642;28;20580;-75
2021/01/09 11:11:23;;;;;;;7.70;5.87;;;3.40;95.10;;;;;;4958208;28;20649;-76
2021/01/09 11:13:49;;;;;;;6.67;6.07;;;3.30;95.10;;;;;;4962949;28;20193;-84
2021/01/09 11:16:19;;;;;;;8.70;6.37;;;3.30;95.00;;;;;;4957998;28;20274;-75
2021/01/09 11:18:44;;;;;;;10.20;5.37;;;3.20;95.00;;;;;;4965166;28;20243;-75
2021/01/09 11:21:10;;;;;;;8.53;5.57;;;3.10;95.30;;;;;;4958640;28;20190;-76
2021/01/09 11:23:36;;;;;;;7.07;5.77;;;3.10;95.50;;;;;;4967247;28;20663;-75
2021/01/09 11:26:01;;;;;;;8.87;5.57;;;3.10;95.60;;;;;;4953799;28;20190;-75
2021/01/09 11:28:27;;;;;;;8.33;5.03;;;3.10;95.80;;;;;;4969973;28;20198;-82
2021/01/09 11:30:53;;;;;;;6.47;4.63;;;3.10;95.80;;;;;;4962591;28;20237;-76
2021/01/09 11:33:18;;;;;;;6.47;5.70;;;3.00;96.00;;;;;;4961359;28;20186;-76
2021/01/09 11:35:44;;;;;;;9.47;6.17;;;3.10;96.30;;;;;;4959812;28;20217;-77
2021/01/09 11:38:10;;;;;;;7.90;5.10;;;3.20;96.10;;;;;;4966223;28;20194;-75
2021/01/09 11:40:36;;;;;;;5.17;4.43;;;3.20;95.90;;;;;;4964983;28;20187;-76
2021/01/09 11:43:01;;;;;;;5.80;5.20;;;3.20;95.40;;;;;;4966331;28;20265;-84
2021/01/09 11:45:27;;;;;;;5.43;4.67;;;3.20;95.40;;;;;;4972209;28;20986;-83
2021/01/09 11:47:53;;;;;;;4.87;4.40;;;3.20;95.20;;;;;;4956524;28;20197;-79
2021/01/09 11:50:18;;;;;;;7.73;4.40;;;3.30;95.40;;;;;;4951786;28;20185;-77
2021/01/09 11:52:44;;;;;;;5.93;4.47;;;3.40;95.50;;;;;;4964001;28;20674;-78
2021/01/09 11:55:11;;;;;;;4.67;4.10;;;3.40;95.70;;;;;;4960576;28;20226;-76
2021/01/09 11:57:36;;;;;;;5.40;4.67;;;3.40;95.30;;;;;;4958775;28;20186;-77
2021/01/09 12:00:10;;;;;;;7.33;5.30;;;3.50;95.50;;;;;;4962453;28;20182;-76
2021/01/09 12:02:37;;;;;;;11.67;6.53;;;3.70;95.50;;;;;;4971019;28;20165;-76
2021/01/09 12:05:07;;;;;;;7.70;5.27;;;3.80;95.50;;;;;;4971528;28;20190;-75
2021/01/09 12:07:33;;;;;;;6.63;4.87;;;3.90;95.50;;;;;;4953149;28;20214;-76
2021/01/09 12:09:59;;;;;;;4.83;4.40;;;4.10;95.00;;;;;;4969341;28;20245;-76
2021/01/09 12:12:25;;;;;;;7.40;5.53;;;4.20;95.00;;;;;;4966018;28;20691;-74
2021/01/09 12:14:51;;;;;;;6.87;5.63;;;4.30;94.80;;;;;;4946882;28;20331;-83
2021/01/09 12:17:17;;;;;;;6.37;5.80;;;4.40;94.90;;;;;;4970675;28;20182;-80
2021/01/09 12:19:42;;;;;;;8.40;6.27;;;4.60;94.80;;;;;;4971929;28;20218;-83
2021/01/09 12:22:08;;;;;;;5.87;4.70;;;4.60;94.50;;;;;;4962943;28;20258;-81
2021/01/09 12:24:34;;;;;;;6.10;5.30;;;4.70;93.40;;;;;;4952854;29;20182;-81
2021/01/09 12:27:00;;;;;;;6.97;5.07;;;4.70;92.50;;;;;;4959076;28;20289;-81
2021/01/09 12:29:25;;;;;;;11.00;5.00;;;4.80;92.50;;;;;;4971761;28;20190;-80
2021/01/09 12:31:51;;;;;;;5.53;4.93;;;4.80;92.30;;;;;;4970736;28;20198;-79
2021/01/09 12:34:17;;;;;;;7.77;5.60;;;4.90;92.40;;;;;;4971010;28;20290;-80
2021/01/09 12:36:46;;;;;;;4.87;4.43;;;4.90;92.40;;;;;;4952624;28;20248;-77
2021/01/09 12:39:12;;;;;;;10.00;5.60;;;4.90;92.40;;;;;;4969251;28;20670;-79
2021/01/09 12:41:41;;;;;;;8.60;5.73;;;4.90;92.20;;;;;;4971119;28;20179;-79
2021/01/09 12:44:07;;;;;;;6.13;5.53;;;4.90;92.30;;;;;;4951130;28;20187;-80
2021/01/09 12:46:41;;;;;;;5.83;4.73;;;4.90;92.50;;;;;;4952144;29;20179;-78
2021/01/09 12:49:14;;;;;;;4.53;4.20;;;4.90;92.30;;;;;;4935999;29;20190;-78
2021/01/09 12:51:41;;;;;;;5.73;4.77;;;4.90;91.90;;;;;;4952448;28;20222;-79
2021/01/09 12:54:07;;;;;;;6.63;5.53;;;4.80;91.80;;;;;;4954648;28;21000;-75
2021/01/09 12:56:34;;;;;;;7.47;6.20;;;4.70;91.60;;;;;;4964428;28;20269;-76
2021/01/09 12:59:02;;;;;;;7.30;5.47;;;4.60;91.30;;;;;;4957410;28;20191;-75
2021/01/09 13:01:39;;;;;;;5.83;5.33;;;4.40;91.50;;;;;;4961571;28;20179;-75
2021/01/09 13:04:06;;;;;;;8.10;5.87;;;4.30;91.90;;;;;;4966188;28;20552;-75
2021/01/09 13:06:39;;;;;;;5.03;4.20;;;4.40;92.40;;;;;;4953855;28;20183;-77
2021/01/09 13:09:07;;;;;;;5.00;4.50;;;4.30;92.30;;;;;;4937746;28;20195;-74